Time;durP1;ratioP1;P1;durP2;ratioP2;P2;SDS_P1;SDS_P2;PMS_P1;PMS_P2;Temp;Humidity;BMP_temperature;BMP_pressure;BME280_temperature;BME280_humidity;BME280_pressure;Samples;Min_cycle;Max_cycle;Signal;HPM_P1;HPM_P2
2023/10/13 00:00:48;;;;;;;5.17;2.03;;;15.10;99.90;;;;;;5090125;28;20297;-67
2023/10/13 00:03:18;;;;;;;5.57;2.70;;;15.10;99.90;;;;;;5087532;28;20213;-67
2023/10/13 00:05:45;;;;;;;4.20;2.73;;;15.10;99.90;;;;;;5105881;28;20190;-67
2023/10/13 00:08:13;;;;;;;3.93;2.73;;;15.10;99.90;;;;;;5105673;28;20220;-67
2023/10/13 00:10:42;;;;;;;3.37;2.83;;;15.10;99.90;;;;;;5105559;27;20267;-66
2023/10/13 00:13:12;;;;;;;6.50;3.43;;;15.10;99.90;;;;;;5105834;28;20216;-66
2023/10/13 00:15:46;;;;;;;5.53;3.20;;;15.10;99.90;;;;;;5106158;28;20197;-67
2023/10/13 00:18:13;;;;;;;7.23;3.70;;;15.10;99.90;;;;;;5105008;28;20226;-67
2023/10/13 00:20:48;;;;;;;5.43;3.63;;;15.10;99.90;;;;;;5102232;28;20768;-66
2023/10/13 00:23:15;;;;;;;7.90;3.60;;;15.10;99.90;;;;;;5095612;28;20201;-66
2023/10/13 00:25:49;;;;;;;4.90;3.20;;;15.10;99.90;;;;;;5085512;28;20696;-66
2023/10/13 00:28:23;;;;;;;5.93;3.30;;;15.10;99.90;;;;;;5095957;28;20197;-67
2023/10/13 00:31:00;;;;;;;4.43;2.87;;;15.00;99.90;;;;;;5104915;28;20210;-66
2023/10/13 00:33:28;;;;;;;5.70;2.80;;;15.00;99.90;;;;;;5105503;28;20668;-66
2023/10/13 00:35:57;;;;;;;4.30;2.80;;;15.00;99.90;;;;;;5105412;28;20236;-67
2023/10/13 00:38:24;;;;;;;8.67;2.77;;;15.00;99.90;;;;;;5105740;28;20205;-66
2023/10/13 00:40:53;;;;;;;5.97;2.90;;;15.00;99.90;;;;;;5105216;28;20241;-67
2023/10/13 00:43:31;;;;;;;6.73;2.80;;;15.00;99.90;;;;;;5104917;28;20210;-67
2023/10/13 00:46:07;;;;;;;5.03;2.80;;;15.00;99.90;;;;;;5105420;28;20613;-67
2023/10/13 00:48:43;;;;;;;5.90;3.00;;;15.00;99.90;;;;;;5091354;28;20775;-67
2023/10/13 00:51:18;;;;;;;3.73;2.63;;;15.00;99.90;;;;;;5093583;28;20729;-67
2023/10/13 00:53:46;;;;;;;3.17;2.87;;;15.00;99.90;;;;;;5086237;28;20202;-67
2023/10/13 00:56:22;;;;;;;4.53;2.93;;;15.00;99.90;;;;;;5092516;28;20211;-67
2023/10/13 00:58:50;;;;;;;6.10;3.17;;;15.00;99.90;;;;;;5085440;28;20202;-67
2023/10/13 01:01:22;;;;;;;3.60;3.23;;;15.00;99.90;;;;;;5085362;28;20210;-67
2023/10/13 01:03:49;;;;;;;4.97;2.67;;;15.00;99.90;;;;;;5085039;28;20192;-67
2023/10/13 01:06:18;;;;;;;7.80;3.67;;;15.00;99.90;;;;;;5085080;28;20267;-67
2023/10/13 01:08:50;;;;;;;3.50;3.20;;;15.00;99.90;;;;;;5087131;28;20255;-66
2023/10/13 01:11:19;;;;;;;4.77;2.87;;;15.00;99.90;;;;;;5094077;28;20194;-66
2023/10/13 01:13:50;;;;;;;8.33;3.20;;;15.00;99.90;;;;;;5105251;28;20217;-67
2023/10/13 01:16:21;;;;;;;6.60;3.53;;;15.00;99.90;;;;;;5104892;28;20224;-66
2023/10/13 01:18:49;;;;;;;5.87;3.40;;;15.00;99.90;;;;;;5105163;28;20217;-66
2023/10/13 01:21:20;;;;;;;6.33;3.50;;;15.00;99.90;;;;;;5105565;28;20318;-67
2023/10/13 01:23:50;;;;;;;3.43;2.93;;;15.00;99.90;;;;;;5105549;28;20190;-66
2023/10/13 01:26:21;;;;;;;4.63;3.20;;;15.00;99.90;;;;;;5086275;28;20296;-67
2023/10/13 01:28:50;;;;;;;5.93;3.37;;;15.00;99.90;;;;;;5085530;28;20299;-66
2023/10/13 01:31:25;;;;;;;3.60;3.30;;;15.00;99.90;;;;;;5084940;28;20261;-66
2023/10/13 01:33:54;;;;;;;4.20;3.30;;;15.00;99.90;;;;;;5084916;28;20213;-66
2023/10/13 01:36:21;;;;;;;6.63;3.60;;;15.00;99.90;;;;;;5084793;28;20238;-67
2023/10/13 01:38:49;;;;;;;4.93;3.60;;;15.00;99.90;;;;;;5084821;28;20207;-65
2023/10/13 01:41:17;;;;;;;6.53;3.13;;;15.00;99.90;;;;;;5119075;28;20257;-65
2023/10/13 01:43:43;;;;;;;4.23;3.40;;;15.00;99.90;;;;;;5127121;27;20864;-65
2023/10/13 01:46:13;;;;;;;3.57;3.27;;;15.00;99.90;;;;;;5099597;27;20209;-66
2023/10/13 01:48:40;;;;;;;4.30;3.67;;;15.00;99.90;;;;;;5095435;28;20202;-65
2023/10/13 01:51:09;;;;;;;5.37;3.90;;;15.00;99.90;;;;;;5104804;28;20293;-65
2023/10/13 01:53:36;;;;;;;4.40;3.90;;;15.00;99.90;;;;;;5092549;28;20660;-65
2023/10/13 01:56:11;;;;;;;4.50;3.40;;;15.00;99.90;;;;;;5095554;28;20230;-65
2023/10/13 01:58:41;;;;;;;6.10;3.80;;;14.90;99.90;;;;;;5088553;28;20198;-66
2023/10/13 02:01:10;;;;;;;5.30;4.10;;;14.90;99.90;;;;;;5087879;28;20226;-66
2023/10/13 02:03:41;;;;;;;6.97;4.37;;;15.00;99.90;;;;;;5088322;28;20211;-66
2023/10/13 02:06:10;;;;;;;5.33;4.67;;;15.00;99.90;;;;;;5088425;28;20206;-66
2023/10/13 02:08:40;;;;;;;6.87;4.97;;;14.90;99.90;;;;;;5088450;28;20206;-66
2023/10/13 02:11:07;;;;;;;5.57;5.00;;;15.00;99.90;;;;;;5099516;28;20202;-66
2023/10/13 02:13:41;;;;;;;6.17;5.67;;;14.90;99.90;;;;;;5090240;28;20294;-66
2023/10/13 02:16:07;;;;;;;7.03;5.87;;;14.90;99.90;;;;;;5092123;28;20677;-67
2023/10/13 02:18:41;;;;;;;6.43;5.80;;;14.90;99.90;;;;;;5107785;28;20230;-67
2023/10/13 02:21:12;;;;;;;8.17;6.00;;;14.90;99.90;;;;;;5090590;28;20231;-66
2023/10/13 02:23:43;;;;;;;6.30;5.80;;;14.90;99.90;;;;;;5092876;28;20736;-66
2023/10/13 02:26:12;;;;;;;8.43;6.53;;;14.90;99.90;;;;;;5107689;28;20198;-67
2023/10/13 02:28:39;;;;;;;7.40;6.70;;;14.90;99.90;;;;;;5107764;27;20222;-67
2023/10/13 02:31:06;;;;;;;6.90;6.30;;;14.90;99.90;;;;;;5104680;28;20199;-66
2023/10/13 02:33:33;;;;;;;7.40;6.70;;;14.90;99.90;;;;;;5087503;28;20218;-66
2023/10/13 02:36:03;;;;;;;7.60;6.83;;;14.90;99.90;;;;;;5087435;28;20281;-66
2023/10/13 02:38:35;;;;;;;7.10;6.47;;;14.90;99.90;;;;;;5087890;28;20202;-66
2023/10/13 02:41:05;;;;;;;8.37;7.57;;;14.90;99.90;;;;;;5095440;28;20673;-66
2023/10/13 02:43:35;;;;;;;10.10;7.53;;;14.80;99.90;;;;;;5108132;28;20206;-66
2023/10/13 02:46:02;;;;;;;7.17;6.57;;;14.80;99.90;;;;;;5101221;28;20573;-66
2023/10/13 02:48:31;;;;;;;7.87;7.13;;;14.80;99.90;;;;;;5094582;28;20579;-66
2023/10/13 02:51:02;;;;;;;8.63;7.83;;;14.80;99.90;;;;;;5102334;28;20210;-66
2023/10/13 02:53:30;;;;;;;8.57;7.33;;;14.90;99.90;;;;;;5087328;28;20221;-66
2023/10/13 02:56:05;;;;;;;10.67;8.00;;;14.90;99.90;;;;;;5086666;28;20680;-66
2023/10/13 02:58:38;;;;;;;10.00;7.67;;;14.90;99.90;;;;;;5088684;28;20204;-66
2023/10/13 03:01:16;;;;;;;9.93;8.20;;;14.90;99.90;;;;;;5090267;28;20219;-66
2023/10/13 03:03:50;;;;;;;10.10;8.47;;;14.90;99.90;;;;;;5093351;28;20206;-66
2023/10/13 03:06:17;;;;;;;9.70;8.57;;;14.90;99.90;;;;;;5095779;28;20203;-66
2023/10/13 03:08:44;;;;;;;9.47;8.40;;;14.90;99.90;;;;;;5095447;28;20214;-65
2023/10/13 03:11:11;;;;;;;9.67;8.23;;;14.80;99.90;;;;;;5089192;28;20696;-68
2023/10/13 03:13:44;;;;;;;10.37;9.37;;;14.90;99.90;;;;;;5086818;28;20302;-67
2023/10/13 03:16:15;;;;;;;9.93;8.90;;;14.90;99.90;;;;;;5093032;28;20209;-66
2023/10/13 03:18:51;;;;;;;11.20;9.20;;;14.90;99.90;;;;;;5103192;28;20313;-66
2023/10/13 03:21:28;;;;;;;11.40;10.30;;;14.90;99.90;;;;;;5091681;28;20904;-66
2023/10/13 03:23:56;;;;;;;10.17;9.10;;;14.90;99.90;;;;;;5097148;28;20194;-66
2023/10/13 03:26:22;;;;;;;11.93;9.60;;;14.90;99.90;;;;;;5089944;28;20207;-66
2023/10/13 03:28:54;;;;;;;10.63;9.60;;;14.90;99.90;;;;;;5086605;28;20271;-66
2023/10/13 03:31:27;;;;;;;12.57;9.40;;;14.90;99.90;;;;;;5104813;27;20604;-66
2023/10/13 03:33:59;;;;;;;10.70;9.47;;;14.90;99.90;;;;;;5084639;28;20221;-66
2023/10/13 03:36:56;;;;;;;11.37;9.47;;;14.90;99.90;;;;;;5086970;28;20738;-66
2023/10/13 03:39:28;;;;;;;11.07;9.50;;;14.90;99.90;;;;;;5098269;28;20279;-66
2023/10/13 03:41:56;;;;;;;10.50;9.50;;;14.90;99.90;;;;;;5103292;28;20199;-66
2023/10/13 03:44:30;;;;;;;10.73;8.97;;;14.90;99.90;;;;;;5092530;28;20672;-66
2023/10/13 03:46:57;;;;;;;11.63;9.83;;;14.90;99.90;;;;;;5102326;28;20560;-66
2023/10/13 03:49:29;;;;;;;10.60;9.17;;;14.90;99.90;;;;;;5099156;28;20230;-66
2023/10/13 03:51:57;;;;;;;12.87;9.73;;;14.90;99.90;;;;;;5084908;28;20662;-66
2023/10/13 03:54:24;;;;;;;14.17;10.50;;;14.90;99.90;;;;;;5084814;28;20809;-66
2023/10/13 03:56:52;;;;;;;11.87;9.97;;;14.90;99.90;;;;;;5084598;28;20202;-66
2023/10/13 03:59:19;;;;;;;11.37;10.17;;;14.90;99.90;;;;;;5085372;28;20310;-66
2023/10/13 04:01:58;;;;;;;10.53;9.30;;;14.90;99.90;;;;;;5088244;28;20222;-66
2023/10/13 04:04:34;;;;;;;14.40;10.80;;;14.90;99.90;;;;;;5098951;28;20656;-66
2023/10/13 04:07:20;;;;;;;12.47;10.47;;;14.90;99.90;;;;;;5087560;28;20207;-66
2023/10/13 04:15:27;;;;;;;14.23;10.90;;;14.90;99.90;;;;;;5095907;28;20228;-66
2023/10/13 04:17:54;;;;;;;11.93;10.23;;;15.00;99.90;;;;;;5085292;28;20657;-67
2023/10/13 04:20:38;;;;;;;14.23;10.63;;;14.90;99.90;;;;;;5094563;28;20233;-66
2023/10/13 04:23:18;;;;;;;15.33;10.47;;;14.90;99.90;;;;;;5098968;28;20198;-66
2023/10/13 04:26:07;;;;;;;15.57;12.50;;;14.90;99.90;;;;;;5105563;28;20209;-67
2023/10/13 04:28:50;;;;;;;13.00;11.10;;;14.90;99.90;;;;;;5103241;28;20727;-67
2023/10/13 04:31:46;;;;;;;14.33;11.37;;;14.90;99.90;;;;;;5090203;28;20200;-66
2023/10/13 04:34:19;;;;;;;12.53;11.23;;;15.00;99.90;;;;;;5119130;27;20220;-66
2023/10/13 04:36:46;;;;;;;14.53;11.37;;;15.00;99.90;;;;;;5117401;27;20222;-66
2023/10/13 04:39:19;;;;;;;14.00;10.97;;;15.10;99.90;;;;;;5093417;28;20332;-67
2023/10/13 04:41:58;;;;;;;11.93;10.63;;;15.00;99.90;;;;;;5086205;28;20219;-66
2023/10/13 04:47:17;;;;;;;13.40;11.37;;;15.00;99.90;;;;;;5103273;28;20225;-66
2023/10/13 04:49:52;;;;;;;14.03;11.20;;;15.00;99.90;;;;;;5104366;28;20205;-67
2023/10/13 04:55:17;;;;;;;12.60;11.27;;;15.00;99.90;;;;;;5085854;28;20224;-66
2023/10/13 04:57:53;;;;;;;13.10;11.87;;;15.00;99.90;;;;;;5084997;28;20301;-66
2023/10/13 05:44:37;;;;;;;14.77;12.33;;;15.10;99.90;;;;;;5108307;28;20236;-65
2023/10/13 05:49:53;;;;;;;13.13;10.50;;;15.20;99.90;;;;;;5098822;28;20220;-65
2023/10/13 05:52:19;;;;;;;11.80;10.60;;;15.20;99.90;;;;;;5106870;28;20247;-65
2023/10/13 06:30:23;;;;;;;11.40;10.37;;;15.40;99.90;;;;;;5075262;27;20686;-66
2023/10/13 06:32:50;;;;;;;11.97;10.67;;;15.40;99.90;;;;;;5097787;28;20194;-66
2023/10/13 06:35:22;;;;;;;12.57;9.97;;;15.40;99.90;;;;;;5107336;27;20263;-66
2023/10/13 06:37:50;;;;;;;10.93;9.83;;;15.40;99.90;;;;;;5106868;28;20191;-66
2023/10/13 06:40:34;;;;;;;16.40;10.37;;;15.40;99.90;;;;;;5095824;28;20337;-66
2023/10/13 06:43:16;;;;;;;12.87;10.90;;;15.40;99.90;;;;;;5107119;28;20218;-66
2023/10/13 06:45:50;;;;;;;11.30;10.17;;;15.40;99.90;;;;;;5107064;28;20285;-66
2023/10/13 06:48:19;;;;;;;12.20;10.33;;;15.40;99.90;;;;;;5106362;27;20190;-66
2023/10/13 06:50:52;;;;;;;14.40;10.27;;;15.50;99.90;;;;;;5107457;28;20208;-66
2023/10/13 06:53:19;;;;;;;11.67;10.10;;;15.50;99.90;;;;;;5105945;28;20280;-66
2023/10/13 06:55:49;;;;;;;13.97;10.67;;;15.50;99.90;;;;;;5097463;28;20230;-66
2023/10/13 06:58:23;;;;;;;19.07;16.57;;;15.50;99.90;;;;;;5106865;28;20251;-66
2023/10/13 07:00:55;;;;;;;21.93;16.93;;;15.60;99.90;;;;;;5107038;28;20316;-66
2023/10/13 07:03:23;;;;;;;11.73;10.03;;;15.60;99.90;;;;;;5104183;28;20317;-67
2023/10/13 07:05:50;;;;;;;11.40;9.97;;;15.60;99.90;;;;;;5098323;28;20206;-66
2023/10/13 07:08:19;;;;;;;11.83;9.80;;;15.70;99.90;;;;;;5107176;28;20984;-66
2023/10/13 07:10:51;;;;;;;11.23;9.63;;;15.70;99.90;;;;;;5107043;28;20651;-66
2023/10/13 07:13:20;;;;;;;13.30;10.20;;;15.80;99.90;;;;;;5097883;28;20252;-66
2023/10/13 07:15:47;;;;;;;12.60;9.57;;;15.80;99.90;;;;;;5095674;28;20696;-66
2023/10/13 07:18:15;;;;;;;11.90;9.47;;;15.80;99.90;;;;;;5097017;28;20199;-66
2023/10/13 07:20:45;;;;;;;9.90;8.90;;;15.80;99.90;;;;;;5094760;28;20238;-66
2023/10/13 07:23:17;;;;;;;10.77;9.17;;;15.90;99.90;;;;;;5095610;28;20252;-66
2023/10/13 07:26:03;;;;;;;12.47;9.47;;;15.90;99.90;;;;;;5095403;28;20545;-66
2023/10/13 07:28:31;;;;;;;12.80;9.17;;;15.90;99.90;;;;;;5097926;28;20750;-66
2023/10/13 07:31:12;;;;;;;10.00;8.93;;;16.00;99.90;;;;;;5103312;28;20676;-67
2023/10/13 07:33:40;;;;;;;9.67;8.40;;;16.00;99.90;;;;;;5093852;28;20195;-66
2023/10/13 07:36:15;;;;;;;11.53;8.93;;;16.10;99.90;;;;;;5092994;28;21061;-66
2023/10/13 07:38:43;;;;;;;9.53;7.93;;;16.10;99.90;;;;;;5093411;28;20650;-66
2023/10/13 07:41:15;;;;;;;11.00;8.33;;;16.10;99.90;;;;;;5095542;28;20225;-66
2023/10/13 07:43:44;;;;;;;14.80;8.13;;;16.10;99.90;;;;;;5094633;28;20232;-67
2023/10/13 07:46:12;;;;;;;9.47;8.23;;;16.20;99.90;;;;;;5091496;28;20279;-66
2023/10/13 07:48:40;;;;;;;10.27;7.30;;;16.20;99.90;;;;;;5094629;28;20274;-66
2023/10/13 07:51:11;;;;;;;7.93;7.13;;;16.20;99.90;;;;;;5093452;28;20198;-66
2023/10/13 07:53:40;;;;;;;10.00;8.00;;;16.30;99.90;;;;;;5096480;28;20845;-66
2023/10/13 07:56:08;;;;;;;8.20;7.40;;;16.30;99.90;;;;;;5099262;28;20209;-66
2023/10/13 07:58:47;;;;;;;7.67;6.90;;;16.30;99.90;;;;;;5094431;28;20608;-66
2023/10/13 08:01:18;;;;;;;8.63;7.50;;;16.40;99.90;;;;;;5094820;28;20311;-66
2023/10/13 08:03:45;;;;;;;8.23;7.43;;;16.40;99.90;;;;;;5097064;28;20190;-66
2023/10/13 08:06:25;;;;;;;8.07;7.27;;;16.40;99.90;;;;;;5098627;28;20339;-66
2023/10/13 08:08:55;;;;;;;21.30;18.87;;;16.50;99.90;;;;;;5095154;28;20190;-66
2023/10/13 08:11:26;;;;;;;10.47;9.30;;;16.40;99.90;;;;;;5096277;28;20210;-66
2023/10/13 08:13:56;;;;;;;7.97;7.20;;;16.50;99.90;;;;;;5096570;28;20191;-66
2023/10/13 08:16:30;;;;;;;8.03;7.23;;;16.50;99.90;;;;;;5097195;28;20226;-66
2023/10/13 08:18:57;;;;;;;7.97;7.20;;;16.50;99.90;;;;;;5100214;28;20191;-66
2023/10/13 08:21:24;;;;;;;7.53;6.73;;;16.50;99.90;;;;;;5088191;28;20263;-66
2023/10/13 08:24:06;;;;;;;8.27;6.90;;;16.60;99.90;;;;;;5085680;28;20236;-66
2023/10/13 08:32:36;;;;;;;7.27;6.50;;;16.70;99.90;;;;;;5089589;28;20211;-66
2023/10/13 08:35:25;;;;;;;6.90;6.30;;;16.80;99.90;;;;;;5093254;28;20206;-66
2023/10/13 08:38:03;;;;;;;9.47;6.20;;;16.80;99.90;;;;;;5099318;28;20252;-66
2023/10/13 08:43:17;;;;;;;7.27;6.53;;;16.80;99.90;;;;;;5092000;28;20212;-66
2023/10/13 08:45:58;;;;;;;6.77;6.10;;;16.80;99.90;;;;;;5091103;28;20320;-66
2023/10/13 08:48:32;;;;;;;7.13;5.80;;;16.80;99.90;;;;;;5095294;28;20222;-66
2023/10/13 08:51:11;;;;;;;7.77;6.43;;;16.80;99.90;;;;;;5091241;28;20194;-66
2023/10/13 08:53:45;;;;;;;10.23;6.50;;;16.80;99.90;;;;;;5100537;28;20187;-66
2023/10/13 08:56:17;;;;;;;6.83;6.13;;;16.80;99.90;;;;;;5096177;28;20294;-66
2023/10/13 08:59:05;;;;;;;6.80;6.03;;;16.80;99.90;;;;;;5100972;28;20711;-66
2023/10/13 09:01:37;;;;;;;6.70;6.00;;;16.80;99.90;;;;;;5093915;28;20217;-67
2023/10/13 09:04:20;;;;;;;8.87;6.43;;;16.80;99.90;;;;;;5096628;28;20198;-66
2023/10/13 09:07:00;;;;;;;6.53;5.80;;;16.90;99.90;;;;;;5102054;28;20266;-67
2023/10/13 09:09:26;;;;;;;6.70;6.10;;;16.90;99.90;;;;;;5103460;28;20197;-67
2023/10/13 09:12:07;;;;;;;8.50;5.93;;;16.90;99.90;;;;;;5096373;28;20546;-67
2023/10/13 09:14:36;;;;;;;6.90;5.97;;;16.90;99.90;;;;;;5095499;28;20285;-67
2023/10/13 09:17:11;;;;;;;8.13;6.00;;;16.90;99.90;;;;;;5103121;28;20198;-66
2023/10/13 09:19:48;;;;;;;6.90;6.20;;;16.90;99.90;;;;;;5097891;28;20198;-67
2023/10/13 09:22:26;;;;;;;7.97;6.20;;;16.90;99.90;;;;;;5088630;28;20219;-67
2023/10/13 09:24:58;;;;;;;7.53;5.83;;;16.90;99.90;;;;;;5088436;28;20195;-66
2023/10/13 09:27:26;;;;;;;6.57;5.97;;;16.90;99.90;;;;;;5097710;28;20195;-67
2023/10/13 09:30:09;;;;;;;6.33;5.73;;;16.90;99.90;;;;;;5101029;28;20198;-67
2023/10/13 09:32:45;;;;;;;7.23;6.03;;;17.00;99.90;;;;;;5109142;28;20193;-67
2023/10/13 09:35:18;;;;;;;6.07;5.57;;;17.00;99.90;;;;;;5105730;28;20237;-67
2023/10/13 09:37:46;;;;;;;7.00;6.30;;;17.10;99.90;;;;;;5100082;28;20191;-67
2023/10/13 09:40:27;;;;;;;6.50;5.90;;;17.10;99.90;;;;;;5095727;28;20202;-66
2023/10/13 09:42:55;;;;;;;6.87;6.20;;;17.10;99.90;;;;;;5104124;28;20237;-67
2023/10/13 09:45:28;;;;;;;7.10;6.40;;;17.10;99.90;;;;;;5108852;28;20221;-67
2023/10/13 09:47:59;;;;;;;6.07;5.57;;;17.00;99.90;;;;;;5106387;28;20285;-66
2023/10/13 09:50:33;;;;;;;7.57;6.47;;;17.00;99.90;;;;;;5102104;28;20194;-66
2023/10/13 09:53:01;;;;;;;6.40;5.80;;;17.00;99.90;;;;;;5103801;27;20734;-66
2023/10/13 09:55:33;;;;;;;7.00;6.30;;;17.00;99.90;;;;;;5098512;28;20206;-66
2023/10/13 09:58:11;;;;;;;7.97;6.40;;;17.10;99.90;;;;;;5108148;28;20230;-66
2023/10/13 10:00:55;;;;;;;7.03;6.33;;;17.10;99.90;;;;;;5107256;28;20657;-66
2023/10/13 10:03:39;;;;;;;8.17;6.30;;;17.10;99.90;;;;;;5105399;28;20283;-66
2023/10/13 10:06:13;;;;;;;6.37;5.77;;;17.20;99.90;;;;;;5098377;28;20202;-66
2023/10/13 10:08:48;;;;;;;7.80;6.10;;;17.20;99.90;;;;;;5103373;28;20318;-66
2023/10/13 10:11:48;;;;;;;8.53;5.90;;;17.20;99.90;;;;;;5102774;28;20206;-66
2023/10/13 10:14:19;;;;;;;6.90;6.00;;;17.20;99.90;;;;;;5087880;28;20665;-66
2023/10/13 10:17:03;;;;;;;6.53;6.03;;;17.20;99.90;;;;;;5088194;28;20209;-66
2023/10/13 10:19:30;;;;;;;7.40;6.33;;;17.20;99.90;;;;;;5094624;28;20253;-66
2023/10/13 10:22:16;;;;;;;7.40;6.00;;;17.20;99.90;;;;;;5107053;28;20261;-66
2023/10/13 10:24:43;;;;;;;6.10;5.60;;;17.20;99.90;;;;;;5107818;28;20571;-66
2023/10/13 10:27:14;;;;;;;7.60;5.53;;;17.20;99.90;;;;;;5099461;28;20405;-66
2023/10/13 10:29:41;;;;;;;5.87;5.37;;;17.20;99.90;;;;;;5108025;28;20194;-66
2023/10/13 10:32:14;;;;;;;6.40;5.77;;;17.30;99.90;;;;;;5100340;28;20713;-66
2023/10/13 10:34:41;;;;;;;6.27;5.77;;;17.20;99.90;;;;;;5087519;28;20195;-66
2023/10/13 10:37:10;;;;;;;6.20;5.70;;;17.30;99.90;;;;;;5087422;28;20242;-66
2023/10/13 10:39:46;;;;;;;5.47;4.87;;;17.30;99.90;;;;;;5087844;28;20301;-66
2023/10/13 10:42:17;;;;;;;8.00;6.70;;;17.30;99.90;;;;;;5093921;28;20853;-66
2023/10/13 10:44:47;;;;;;;8.03;5.77;;;17.30;99.90;;;;;;5087939;28;20692;-66
2023/10/13 10:47:19;;;;;;;6.20;5.60;;;17.30;99.90;;;;;;5101865;28;20212;-66
2023/10/13 10:49:46;;;;;;;5.73;5.10;;;17.40;99.90;;;;;;5094890;28;20207;-66
2023/10/13 10:52:19;;;;;;;6.80;5.37;;;17.40;99.90;;;;;;5086478;28;20890;-66
2023/10/13 10:54:51;;;;;;;6.37;5.77;;;17.40;99.90;;;;;;5086487;28;20195;-66
2023/10/13 10:57:18;;;;;;;5.77;5.37;;;17.40;99.90;;;;;;5086429;28;20203;-66
2023/10/13 10:59:46;;;;;;;7.27;5.50;;;17.40;99.90;;;;;;5086528;28;20670;-66
2023/10/13 11:02:18;;;;;;;7.30;6.17;;;17.40;99.90;;;;;;5086241;28;20313;-66
2023/10/13 11:04:51;;;;;;;6.37;5.77;;;17.40;99.90;;;;;;5086742;28;20791;-66
2023/10/13 11:07:29;;;;;;;6.73;6.00;;;17.40;99.90;;;;;;5086961;28;20191;-66
2023/10/13 11:10:06;;;;;;;6.13;5.53;;;17.40;99.90;;;;;;5086876;28;20201;-66
2023/10/13 11:12:34;;;;;;;10.80;5.83;;;17.50;99.90;;;;;;5087113;28;20492;-66
2023/10/13 11:15:13;;;;;;;6.43;5.77;;;17.50;99.90;;;;;;5086552;28;20260;-66
2023/10/13 11:17:48;;;;;;;9.40;5.93;;;17.50;99.90;;;;;;5105206;28;20217;-66
2023/10/13 11:20:25;;;;;;;12.40;5.93;;;17.50;99.90;;;;;;5106899;28;20204;-66
2023/10/13 11:22:54;;;;;;;7.67;5.43;;;17.50;99.90;;;;;;5107154;28;20221;-66
2023/10/13 11:25:30;;;;;;;11.97;6.27;;;17.60;99.90;;;;;;5104754;28;20721;-66
2023/10/13 11:27:58;;;;;;;6.47;5.87;;;17.60;99.90;;;;;;5086789;28;20199;-66
2023/10/13 11:30:30;;;;;;;6.60;5.83;;;17.60;99.90;;;;;;5103911;28;20241;-67
2023/10/13 11:33:02;;;;;;;5.83;5.37;;;17.60;99.90;;;;;;5106116;28;20554;-66
2023/10/13 11:35:48;;;;;;;5.90;5.30;;;17.60;99.90;;;;;;5106337;28;20323;-66
2023/10/13 11:38:25;;;;;;;7.03;5.87;;;17.60;99.90;;;;;;5093376;28;20229;-66
2023/10/13 11:41:08;;;;;;;8.93;5.93;;;17.60;99.90;;;;;;5085518;28;20280;-66
2023/10/13 11:43:52;;;;;;;7.83;5.70;;;17.60;99.90;;;;;;5086008;28;20223;-66
2023/10/13 11:46:55;;;;;;;8.40;5.90;;;17.70;99.90;;;;;;5093265;28;20297;-67
2023/10/13 11:49:18;;;;;;;7.83;5.60;;;17.80;99.90;;;;;;5100385;28;20207;-66
2023/10/13 11:51:46;;;;;;;7.70;5.87;;;17.80;99.90;;;;;;5085988;28;20642;-66
2023/10/13 11:54:15;;;;;;;7.17;5.70;;;17.90;99.90;;;;;;5085675;28;20305;-66
2023/10/13 11:56:42;;;;;;;7.63;5.10;;;18.00;99.90;;;;;;5086073;28;20923;-67
2023/10/13 11:59:16;;;;;;;9.20;5.70;;;18.00;99.90;;;;;;5085958;28;20289;-66
2023/10/13 12:04:34;;;;;;;6.30;5.30;;;18.10;99.90;;;;;;5067287;28;20297;-66
2023/10/13 12:07:14;;;;;;;6.40;5.00;;;18.20;99.90;;;;;;5085766;28;20202;-66
2023/10/13 12:09:52;;;;;;;8.60;5.23;;;18.20;99.90;;;;;;5085307;28;20198;-66
2023/10/13 12:12:19;;;;;;;6.93;5.43;;;18.10;99.90;;;;;;5085439;28;20202;-66
2023/10/13 12:14:54;;;;;;;11.00;10.00;;;18.10;99.90;;;;;;5085650;28;20245;-66
2023/10/13 12:17:25;;;;;;;6.30;5.53;;;18.20;99.90;;;;;;5101779;28;20201;-66
2023/10/13 12:19:54;;;;;;;6.73;5.97;;;18.20;99.90;;;;;;5105875;28;20220;-66
2023/10/13 12:22:28;;;;;;;7.13;5.50;;;18.20;99.90;;;;;;5105607;28;20230;-66
2023/10/13 12:24:57;;;;;;;9.03;5.70;;;18.20;99.90;;;;;;5103135;28;20201;-66
2023/10/13 12:27:26;;;;;;;7.07;5.23;;;18.30;99.90;;;;;;5085073;28;20230;-66
2023/10/13 12:29:56;;;;;;;7.67;5.30;;;18.20;99.90;;;;;;5085607;28;20691;-66
2023/10/13 12:32:25;;;;;;;10.37;5.10;;;18.20;99.90;;;;;;5085423;28;20215;-66
2023/10/13 12:35:00;;;;;;;10.57;5.57;;;18.30;99.90;;;;;;5101204;28;20242;-67
2023/10/13 12:37:49;;;;;;;9.20;5.87;;;18.30;99.90;;;;;;5105995;28;20227;-66
2023/10/13 12:51:40;;;;;;;6.13;5.13;;;18.70;99.90;;;;;;5085001;28;20202;-67
2023/10/13 12:54:14;;;;;;;9.30;5.27;;;18.70;99.90;;;;;;5085330;28;20216;-66
2023/10/13 12:56:42;;;;;;;7.87;5.40;;;18.80;99.90;;;;;;5085040;28;20230;-66
2023/10/13 12:59:13;;;;;;;11.10;5.47;;;18.90;99.90;;;;;;5084904;28;20687;-66
2023/10/13 13:01:42;;;;;;;11.03;7.80;;;19.00;99.90;;;;;;5085197;28;20664;-66
2023/10/13 13:04:16;;;;;;;10.67;7.07;;;19.00;99.90;;;;;;5084889;28;20526;-66
2023/10/13 13:06:43;;;;;;;8.83;5.03;;;19.20;99.90;;;;;;5085328;28;20227;-66
2023/10/13 13:09:10;;;;;;;9.80;5.40;;;19.30;99.90;;;;;;5084919;28;20979;-66
2023/10/13 13:11:39;;;;;;;5.77;5.17;;;19.30;99.90;;;;;;5085010;28;20833;-66
2023/10/13 13:14:08;;;;;;;9.70;4.97;;;19.40;99.90;;;;;;5085012;28;20305;-66
2023/10/13 13:16:38;;;;;;;11.70;5.37;;;19.50;99.90;;;;;;5085120;28;20237;-66
2023/10/13 13:19:10;;;;;;;6.47;5.40;;;19.60;99.90;;;;;;5084919;28;20293;-66
2023/10/13 13:21:38;;;;;;;9.20;5.50;;;19.70;99.90;;;;;;5084757;28;20575;-66
2023/10/13 13:24:10;;;;;;;11.07;5.40;;;19.70;99.90;;;;;;5084535;28;20349;-66
2023/10/13 13:26:40;;;;;;;7.67;5.10;;;19.80;99.90;;;;;;5097135;28;20653;-66
2023/10/13 13:29:10;;;;;;;6.23;4.60;;;19.90;99.90;;;;;;5104994;28;20202;-66
2023/10/13 13:31:41;;;;;;;5.57;4.87;;;19.80;99.90;;;;;;5105126;28;20194;-66
2023/10/13 13:34:10;;;;;;;13.13;5.00;;;19.80;99.90;;;;;;5105224;28;20609;-66
2023/10/13 13:36:38;;;;;;;10.77;5.07;;;19.80;99.90;;;;;;5105193;28;20254;-66
2023/10/13 13:39:06;;;;;;;8.93;5.57;;;19.70;99.90;;;;;;5106144;28;20815;-66
2023/10/13 13:41:33;;;;;;;12.67;5.70;;;19.70;99.90;;;;;;5108941;28;20234;-66
2023/10/13 13:44:13;;;;;;;11.37;5.03;;;19.80;99.90;;;;;;5108304;28;20249;-66
2023/10/13 13:46:43;;;;;;;9.23;5.23;;;19.80;99.90;;;;;;5103316;28;20213;-66
2023/10/13 13:49:18;;;;;;;8.90;5.57;;;19.80;99.90;;;;;;5108169;28;20205;-66
2023/10/13 13:51:51;;;;;;;7.97;5.50;;;20.10;99.90;;;;;;5108643;28;20225;-66
2023/10/13 13:54:19;;;;;;;7.97;5.00;;;20.30;99.90;;;;;;5108142;28;20190;-66
2023/10/13 13:56:46;;;;;;;7.65;5.05;;;20.50;99.90;;;;;;5108166;28;20208;-66
2023/10/13 13:59:15;;;;;;;13.63;5.47;;;20.70;99.90;;;;;;5107853;28;20630;-66
2023/10/13 14:01:45;;;;;;;10.73;5.37;;;20.70;99.90;;;;;;5108070;28;20668;-66
2023/10/13 14:04:14;;;;;;;7.50;4.57;;;20.80;99.90;;;;;;5108039;28;20234;-66
2023/10/13 14:06:40;;;;;;;11.75;5.60;;;21.00;99.90;;;;;;5108449;28;20202;-66
2023/10/13 14:09:15;;;;;;;8.98;4.65;;;21.10;99.90;;;;;;5107865;28;20698;-66
2023/10/13 14:14:46;;;;;;;8.98;4.80;;;21.30;99.90;;;;;;5064704;28;20224;-66
2023/10/13 14:17:14;;;;;;;9.60;4.75;;;21.40;99.90;;;;;;5100001;28;20315;-66
2023/10/13 14:19:42;;;;;;;8.93;4.90;;;21.50;99.90;;;;;;5108210;28;20245;-66
2023/10/13 14:22:12;;;;;;;12.35;4.65;;;21.50;99.90;;;;;;5107961;28;20274;-66
2023/10/13 14:24:43;;;;;;;9.88;4.80;;;21.60;99.90;;;;;;5108034;27;20241;-66
2023/10/13 14:27:15;;;;;;;8.07;4.82;;;21.60;99.90;;;;;;5104933;28;20679;-66
2023/10/13 14:29:42;;;;;;;6.68;4.53;;;21.60;99.90;;;;;;5108085;28;20644;-66
2023/10/13 14:32:12;;;;;;;4.78;4.28;;;21.60;99.90;;;;;;5107888;28;20230;-67
2023/10/13 14:34:41;;;;;;;8.07;5.43;;;21.50;99.90;;;;;;5090575;28;20207;-66
2023/10/13 14:37:08;;;;;;;8.60;4.78;;;21.40;99.90;;;;;;5087070;28;20270;-66
2023/10/13 14:39:36;;;;;;;15.43;5.40;;;21.30;99.90;;;;;;5087354;28;20359;-66
2023/10/13 14:42:05;;;;;;;8.95;4.63;;;21.20;99.90;;;;;;5095441;28;20217;-66
2023/10/13 14:44:33;;;;;;;6.00;5.15;;;21.20;99.90;;;;;;5107696;28;20573;-66
2023/10/13 14:47:00;;;;;;;8.20;4.60;;;21.20;99.90;;;;;;5107501;28;20636;-66
2023/10/13 14:49:27;;;;;;;7.13;4.80;;;21.10;99.90;;;;;;5107280;28;20217;-66
2023/10/13 14:51:56;;;;;;;15.97;5.50;;;21.00;99.90;;;;;;5107151;28;20289;-66
2023/10/13 14:54:32;;;;;;;9.13;5.23;;;21.00;99.90;;;;;;5107108;28;20217;-66
2023/10/13 14:57:00;;;;;;;7.37;4.60;;;20.90;99.90;;;;;;5107084;28;20201;-66
2023/10/13 14:59:32;;;;;;;10.07;5.00;;;20.80;99.90;;;;;;5106996;28;20213;-66
2023/10/13 15:02:00;;;;;;;11.40;4.93;;;20.80;99.90;;;;;;5106963;28;20213;-66
2023/10/13 15:04:28;;;;;;;5.43;4.73;;;20.70;99.90;;;;;;5106656;27;20324;-66
2023/10/13 15:06:57;;;;;;;9.93;5.30;;;20.80;99.90;;;;;;5106403;27;20703;-66